Consult

EGKB 192220Z 34010KT 3000 -DZ BR BKN002 09/09 Q1016

We provide a range of consulting services for businesses and individuals who are considering or are currently operating aircraft.

Services we offer:

– Aircraft Appraisals & Fair Market Value Analysis
– Residual Value Analysis/Forecasting
– Complete Needs Analysis & Aircraft Selection
– Analysis of Current Operational Usage

1alogo